Flight Track Log - Related Links

Times and Time Zones

All times are in EDT time to prevent confusion due to time zone crossing. See the NKS208 flight status page for this flight to view local times or setup timezone preferences in your user account.

Time Position Orientation Groundspeed Altitude Reporting Facility
EDT Latitude Longitude Course Direction KTS MPH feet Rate Location/Type
Wed 04:48:29 AM 36.0760 -115.1220 272° West 29 33  Level FlightAware ADS-B
Wed 04:48:47 AM 36.0760 -115.1260 270° West 72 83 2,676 Level FlightAware ADS-B
Wed 04:49:06 AM 36.0760 -115.1370 270° West 145 167 3,536 Level FlightAware ADS-B
Wed 04:49:43 AM 36.0760 -115.1740 270° West 169 194 3,300 4,033 Climbing FlightAware ADS-B
Wed 04:50:07 AM 36.0760 -115.1970 270° West 171 197 4,100 1,015 Climbing FlightAware ADS-B
Wed 04:50:48 AM 36.0740 -115.2330 266° West 179 206 4,400 2,009 Climbing FlightAware ADS-B
Wed 04:53:00 AM 35.8499 -115.2494 103° East  Level FlightAware Approximate
Wed 04:53:39 AM 35.9220 -115.2210 103° East 316 364 11,200  Level FlightAware ADS-B
Wed 04:54:20 AM 35.9250 -115.1420 87° East 356 410 12,200 1,481 Climbing FlightAware ADS-B
Wed 04:55:00 AM 35.9270 -115.0570 88° East 384 442 13,200 2,429 Climbing FlightAware ADS-B
Wed 04:55:44 AM 35.9270 -114.9630 90° East 372 428 15,600 2,386 Climbing FlightAware ADS-B
Wed 04:56:28 AM 35.9270 -114.8700 90° East 391 450 16,700 1,879 Climbing FlightAware ADS-B
Wed 04:57:23 AM 35.9270 -114.7400 90° East 405 466 18,700 2,082 Climbing FlightAware ADS-B
Wed 04:58:06 AM 35.9270 -114.6430 90° East 410 472 20,100 1,792 Climbing FlightAware ADS-B
Wed 04:58:40 AM 35.9270 -114.5620 90° East 419 482 21,000 1,579 Climbing FlightAware ADS-B
Wed 04:59:22 AM 35.9270 -114.4590 90° East 426 490 22,100 912 Climbing FlightAware ADS-B
Wed 05:00:45 AM 35.9260 -114.2710 90° East 435 501 22,900 1,235 Climbing FlightAware ADS-B
Wed 05:02:12 AM 35.9250 -114.0680 90° East 451 519 25,600 1,736 Climbing FlightAware ADS-B
Wed 05:02:46 AM 35.9240 -113.9820 91° East 454 522 26,400 1,590 Climbing FlightAware ADS-B
Wed 05:03:35 AM 35.9110 -113.8210 96° East 457 526 27,800 1,267 Climbing FlightAware ADS-B
Wed 05:04:16 AM 35.8940 -113.7130 101° East 468 539 28,300 889 Climbing FlightAware ADS-B
Wed 05:04:56 AM 35.8770 -113.6070 101° East 470 541 29,000 1,214 Climbing FlightAware ADS-B
Wed 05:05:40 AM 35.8590 -113.4930 101° East 468 539 30,000 1,227 Climbing FlightAware ADS-B
Wed 05:06:24 AM 35.8400 -113.3760 101° East 470 541 30,800 947 Climbing FlightAware ADS-B
Wed 05:06:56 AM 35.8270 -113.2940 101° East 474 545 31,200 947 Climbing FlightAware ADS-B
Wed 05:07:40 AM 35.8080 -113.1780 101° East 477 549 32,000 1,214 Climbing FlightAware ADS-B
Wed 05:08:20 AM 35.7910 -113.0700 101° East 474 545 32,900 1,429 Climbing FlightAware ADS-B
Wed 05:09:04 AM 35.7720 -112.9530 101° East 468 539 34,000 1,429 Climbing FlightAware ADS-B
Wed 05:09:44 AM 35.7550 -112.8510 102° East 464 534 34,900 1,171 Climbing FlightAware ADS-B
Wed 05:10:26 AM 35.7370 -112.7420 101° East 466 536 35,600 785 Climbing FlightAware ADS-B
Wed 05:11:31 AM 35.7220 -112.6500 101° East 463 533 36,300 778 Climbing FlightAware ADS-B
Wed 05:12:14 AM 35.6950 -112.4950 102° East 463 533 37,000 506 Climbing FlightAware ADS-B
Wed 05:12:54 AM 35.6780 -112.3900 101° East 462 532 37,000  Level FlightAware ADS-B
Wed 05:13:52 AM 35.6550 -112.2530 102° East 455 524 37,000  Level FlightAware ADS-B
Wed 05:14:31 AM 35.6370 -112.1500 102° East 454 522 37,000  Level FlightAware ADS-B
Wed 05:15:36 AM 35.6140 -112.0070 101° East 454 522 37,000  Level FlightAware ADS-B
Wed 05:17:06 AM 35.5900 -111.7920 98° East 461 531 37,000  Level FlightAware ADS-B
Wed 05:17:48 AM 35.5860 -111.6460 92° East 464 534 37,000  Level FlightAware ADS-B
Wed 05:18:27 AM 35.5830 -111.5440 92° East 463 533 37,000  Level FlightAware ADS-B
Wed 05:19:30 AM 35.5780 -111.3790 92° East 461 531 37,000  Level FlightAware ADS-B
Wed 05:20:09 AM 35.5740 -111.2390 92° East 459 528 37,000  Level FlightAware ADS-B
Wed 05:20:53 AM 35.5710 -111.1260 92° East 458 527 37,000  Level FlightAware ADS-B
Wed 05:21:37 AM 35.5670 -111.0110 92° East 457 526 37,000  Level FlightAware ADS-B
Wed 05:22:13 AM 35.5630 -110.9180 93° East 456 525 37,000 -79 Level FlightAware ADS-B
Wed 05:22:53 AM 35.5600 -110.8170 92° East 456 525 36,900 -75 Descending FlightAware ADS-B
Wed 05:23:33 AM 35.5560 -110.7120 93° East 457 526 36,900 75 Level FlightAware ADS-B
Wed 05:24:13 AM 35.5520 -110.6080 93° East 457 526 37,000 74 Climbing FlightAware ADS-B
Wed 05:24:54 AM 35.5490 -110.5040 92° East 456 525 37,000  Level FlightAware ADS-B
Wed 05:25:33 AM 35.5450 -110.4010 93° East 454 522 37,000  Level FlightAware ADS-B
Wed 05:26:13 AM 35.5410 -110.2990 93° East 453 521 37,000 -71 Level FlightAware ADS-B
Wed 05:26:57 AM 35.5360 -110.1870 93° East 453 521 36,900  Descending FlightAware ADS-B
Wed 05:27:41 AM 35.5320 -110.0710 92° East 453 521 37,000 70 Climbing FlightAware ADS-B
Wed 05:28:23 AM 35.5270 -109.9680 93° East 453 521 37,000  Level FlightAware ADS-B
Wed 05:29:03 AM 35.5230 -109.8610 93° East 455 524 37,000  Level FlightAware ADS-B
Wed 05:29:39 AM 35.5190 -109.7690 93° East 456 525 37,000  Level FlightAware ADS-B
Wed 05:30:37 AM 35.5140 -109.6540 93° East 457 526 37,000  Level FlightAware ADS-B
Wed 05:32:29 AM 35.5010 -109.3760 93° East 459 528 37,000  Level FlightAware ADS-B
Wed 05:33:04 AM 35.4940 -109.2390 94° East 455 524 37,000  Level FlightAware ADS-B
Wed 05:33:53 AM 35.4900 -109.1320 93° East 455 524 37,000  Level FlightAware ADS-B
Wed 05:34:46 AM 35.4820 -108.9890 94° East 449 517 37,000  Level FlightAware ADS-B
Wed 05:35:22 AM 35.4790 -108.9110 93° East 449 517 37,000  Level FlightAware ADS-B
Wed 05:36:10 AM 35.4750 -108.8070 93° East 449 517 37,000  Level FlightAware ADS-B
Wed 05:37:31 AM 35.4150 -108.5720 107° East 449 517 37,000 -48 Level FlightAware ADS-B
Wed 05:38:14 AM 35.3970 -108.4780 103° East 449 517 36,900 -76 Descending FlightAware ADS-B
Wed 05:38:50 AM 35.3830 -108.4020 103° East 449 517 36,900  Level FlightAware ADS-B
Wed 05:39:27 AM 35.3680 -108.3240 103° East 449 517 36,900 71 Level FlightAware ADS-B
Wed 05:40:14 AM 35.3320 -108.1680 106° East 454 522 37,000 63 Climbing FlightAware ADS-B
Wed 05:41:03 AM 35.3090 -108.0540 104° East 453 521 37,000  Level FlightAware ADS-B
Wed 05:41:51 AM 35.2880 -107.9530 104° East 453 521 37,000  Level FlightAware ADS-B
Wed 05:42:27 AM 35.2730 -107.8770 104° East 453 521 37,000  Level FlightAware ADS-B
Wed 05:43:15 AM 35.2520 -107.7750 104° East 453 521 37,000  Level FlightAware ADS-B
Wed 05:43:51 AM 35.2370 -107.6990 104° East 453 521 37,000  Level FlightAware ADS-B
Wed 05:44:33 AM 35.1960 -107.5190 106° East 457 526 37,000  Level FlightAware ADS-B
Wed 05:46:29 AM 35.1420 -107.2660 105° East 456 525 37,000  Level FlightAware ADS-B
Wed 05:47:09 AM 35.1200 -107.1640 105° East 456 525 37,000  Level FlightAware ADS-B
Wed 05:47:53 AM 35.0890 -107.0230 105° East 455 524 37,000  Level FlightAware ADS-B
Wed 05:48:36 AM 35.0660 -106.9170 105° East 451 519 37,000  Level FlightAware ADS-B
Wed 05:49:15 AM 35.0450 -106.8220 105° East 435 501 37,000  Level FlightAware ADS-B
Wed 05:49:51 AM 35.0340 -106.7370 99° East 426 490 37,000  Level FlightAware ADS-B
Wed 05:50:33 AM 35.0220 -106.6370 98° East 423 487 37,000  Level FlightAware ADS-B
Wed 05:51:11 AM 35.0120 -106.5500 98° East 422 486 37,000  Level FlightAware ADS-B
Wed 05:51:57 AM 34.9980 -106.4390 99° East 417 480 37,000 -70 Level FlightAware ADS-B
Wed 05:52:37 AM 34.9860 -106.3460 99° East 416 479 36,900 -70 Descending FlightAware ADS-B
Wed 05:53:23 AM 34.9730 -106.2410 99° East 418 481 36,900  Level FlightAware ADS-B
Wed 05:54:03 AM 34.9610 -106.1480 99° East 420 483 36,900 79 Level FlightAware ADS-B
Wed 05:54:39 AM 34.9500 -106.0610 99° East 424 488 37,000 77 Climbing FlightAware ADS-B
Wed 05:55:21 AM 34.9380 -105.9630 98° East 425 489 37,000  Level FlightAware ADS-B
Wed 05:56:05 AM 34.9240 -105.8610 99° East 425 489 37,000  Level FlightAware ADS-B
Wed 05:56:41 AM 34.9130 -105.7750 99° East 426 490 37,000  Level FlightAware ADS-B
Wed 05:57:15 AM 34.9030 -105.6930 98° East 431 496 37,000  Level FlightAware ADS-B
Wed 05:58:31 AM 34.8850 -105.5370 98° East 431 496 37,000  Level FlightAware ADS-B
Wed 05:59:07 AM 34.8770 -105.4640 98° East 431 496 37,000  Level FlightAware ADS-B
Wed 05:59:55 AM 34.8650 -105.3660 98° East 431 496 37,000  Level FlightAware ADS-B
Wed 06:00:31 AM 34.8570 -105.2920 97° East 431 496 37,000  Level FlightAware ADS-B
Wed 06:01:19 AM 34.8450 -105.1940 98° East 431 496 37,000  Level FlightAware ADS-B
Wed 06:01:55 AM 34.8370 -105.1200 97° East 431 496 37,000  Level FlightAware ADS-B
Wed 06:02:43 AM 34.8250 -105.0220 98° East 431 496 37,000  Level FlightAware ADS-B
Wed 06:03:19 AM 34.8170 -104.9480 97° East 431 496 37,000  Level FlightAware ADS-B
Wed 06:04:07 AM 34.8060 -104.8500 98° East 431 496 37,000  Level FlightAware ADS-B
Wed 06:04:43 AM 34.7970 -104.7770 99° East 431 496 37,000  Level FlightAware ADS-B
Wed 06:05:32 AM 34.7860 -104.6770 98° East 431 496 37,000  Level FlightAware ADS-B
Wed 06:06:08 AM 34.7770 -104.6030 98° East 431 496 37,000  Level FlightAware ADS-B
Wed 06:06:56 AM 34.7660 -104.5050 98° East 431 496 37,000 1,463 Level FlightAware ADS-B
Wed 06:07:30 AM 34.3947 -104.5650 98° East 446 513 39,000 1,263 Climbing Albuquerque Center
Wed 06:08:31 AM 34.2708 -104.5469 173° South 445 512 39,000  Level Albuquerque Center
Wed 06:09:31 AM 34.1469 -104.5253 172° South 446 513 39,000  Level Albuquerque Center
Wed 06:10:31 AM 34.0253 -104.5067 173° South 440 506 39,000  Level Albuquerque Center
Wed 06:11:31 AM 33.8964 -104.4872 173° South 438 504 39,000  Level Albuquerque Center
Wed 06:12:32 AM 33.7836 -104.4347 159° South 443 510 39,000  Level Albuquerque Center
Wed 06:13:32 AM 33.7031 -104.3303 133° Southeast 434 499 39,000 -50 Level Albuquerque Center
Wed 06:14:32 AM 33.6314 -104.2142 127° Southeast 439 505 38,900 -50 Descending Albuquerque Center
Wed 06:15:33 AM 33.5842 -104.0706 112° Southeast 435 501 38,900 50 Level Albuquerque Center
Wed 06:16:33 AM 33.5172 -103.9578 125° Southeast 420 483 39,000 50 Climbing Albuquerque Center
Wed 06:17:33 AM 33.4231 -103.8681 141° Southeast 424 488 39,000 -50 Level Albuquerque Center
Wed 06:18:33 AM 33.3297 -103.7831 143° Southeast 421 484 38,900  Descending Albuquerque Center
Wed 06:19:34 AM 33.2383 -103.6981 142° Southeast 417 480 39,000 50 Climbing Albuquerque Center
Wed 06:20:34 AM 33.1547 -103.6264 144° Southeast 416 479 39,000  Level Albuquerque Center
Wed 06:21:34 AM 33.0578 -103.5500 147° Southeast 417 480 39,000  Level Albuquerque Center
Wed 06:22:34 AM 32.9631 -103.4739 146° Southeast 413 475 39,000  Level Albuquerque Center
Wed 06:23:35 AM 32.8681 -103.4019 148° Southeast 407 468 39,000  Level Albuquerque Center
Wed 06:24:35 AM 32.7753 -103.3281 146° Southeast 403 464 39,000  Level Albuquerque Center
Wed 06:25:35 AM 32.6825 -103.2425 142° Southeast 420 483 39,000  Level Albuquerque Center
Wed 06:26:35 AM 32.6111 -103.1244 126° Southeast 438 504 39,000 -15 Level Albuquerque Center
Wed 06:32:23 AM 32.4160 -102.3050 126° Southeast 423 487 38,900 -15 Descending FlightAware ADS-B
Wed 06:33:15 AM 32.4090 -102.2010 95° East 423 487 38,900  Level FlightAware ADS-B
Wed 06:33:51 AM 32.4050 -102.1310 94° East 423 487 38,900  Level FlightAware ADS-B
Wed 06:34:39 AM 32.4000 -102.0360 94° East 423 487 38,900 57 Level FlightAware ADS-B
Wed 06:35:37 AM 32.3860 -101.8480 95° East 434 499 39,000  Climbing FlightAware ADS-B
Wed 06:36:22 AM 32.3790 -101.7430 94° East 431 496 38,900 -71 Descending FlightAware ADS-B
Wed 06:37:01 AM 32.3730 -101.6510 94° East 431 496 38,900 76 Level FlightAware ADS-B
Wed 06:37:41 AM 32.3660 -101.5560 95° East 441 507 39,000 71 Climbing FlightAware ADS-B
Wed 06:38:25 AM 32.3590 -101.4500 94° East 441 507 39,000  Level FlightAware ADS-B
Wed 06:39:11 AM 32.3510 -101.3410 95° East 441 507 39,000  Level FlightAware ADS-B
Wed 06:39:51 AM 32.3450 -101.2430 94° East 442 509 39,000  Level FlightAware ADS-B
Wed 06:40:35 AM 32.3370 -101.1370 95° East 443 510 39,000  Level FlightAware ADS-B
Wed 06:41:15 AM 32.3300 -101.0410 95° East 445 512 39,000  Level FlightAware ADS-B
Wed 06:41:56 AM 32.3230 -100.9440 95° East 447 514 39,000  Level FlightAware ADS-B
Wed 06:42:40 AM 32.3150 -100.8370 95° East 448 516 39,000  Level FlightAware ADS-B
Wed 06:43:20 AM 32.3080 -100.7380 95° East 449 517 39,000  Level FlightAware ADS-B
Wed 06:44:03 AM 32.3000 -100.6320 95° East 449 517 39,000  Level FlightAware ADS-B
Wed 06:44:45 AM 32.2920 -100.5290 95° East 449 517 39,000  Level FlightAware ADS-B
Wed 06:45:42 AM 32.2820 -100.3940 95° East 448 516 39,000  Level FlightAware ADS-B
Wed 06:46:22 AM 32.2740 -100.2940 95° East 448 516 39,000  Level FlightAware ADS-B
Wed 06:47:07 AM 32.2650 -100.1820 95° East 457 526 39,000  Level FlightAware ADS-B
Wed 06:47:47 AM 32.2570 -100.0830 95° East 454 522 39,000  Level FlightAware ADS-B
Wed 06:48:27 AM 32.2490 -99.9840 95° East 458 527 39,000  Level FlightAware ADS-B
Wed 06:49:07 AM 32.2410 -99.8840 95° East 457 526 39,000  Level FlightAware ADS-B
Wed 06:49:54 AM 32.2340 -99.7700 94° East 458 527 39,000  Level FlightAware ADS-B
Wed 06:50:34 AM 32.2360 -99.6710 89° East 457 526 39,000  Level FlightAware ADS-B
Wed 06:51:15 AM 32.2420 -99.5720 86° East 457 526 39,000  Level FlightAware ADS-B
Wed 06:51:58 AM 32.2490 -99.4650 86° East 452 520 39,000  Level FlightAware ADS-B
Wed 06:52:43 AM 32.2560 -99.3540 86° East 450 518 39,000  Level FlightAware ADS-B
Wed 06:53:23 AM 32.2700 -99.2580 80° East 448 516 39,000 -71 Level FlightAware ADS-B
Wed 06:54:07 AM 32.2830 -99.1500 82° East 447 514 38,900 -72 Descending FlightAware ADS-B
Wed 06:54:46 AM 32.2950 -99.0570 81° East 451 519 38,900 -835 Level FlightAware ADS-B
Wed 06:55:26 AM 32.3060 -98.9580 82° East 456 525 37,800 -2,188 Descending FlightAware ADS-B
Wed 06:56:11 AM 32.3190 -98.8470 82° East 461 531 35,800 -2,721 Descending FlightAware ADS-B
Wed 06:56:52 AM 32.3310 -98.7450 82° East 462 532 33,900 -3,143 Descending FlightAware ADS-B
Wed 06:57:35 AM 32.3440 -98.6320 82° East 469 540 31,400 -3,542 Descending FlightAware ADS-B
Wed 06:58:15 AM 32.3560 -98.5300 82° East 473 544 29,000 -3,214 Descending FlightAware ADS-B
Wed 06:58:59 AM 32.3690 -98.4200 82° East 465 535 26,900 -2,824 Descending FlightAware ADS-B
Wed 06:59:40 AM 32.3800 -98.3180 83° East 454 522 25,000 -2,432 Descending FlightAware ADS-B
Wed 07:00:50 AM 32.3960 -98.1840 82° East 438 504 22,400 -2,629 Descending FlightAware ADS-B
Wed 07:02:54 AM 32.4280 -97.8960 82° East 409 471 16,500 -3,000 Descending FlightAware ADS-B
Wed 07:03:34 AM 32.4400 -97.7830 83° East 392 451 14,200 -3,000 Descending FlightAware ADS-B
Wed 07:04:16 AM 32.4500 -97.6950 82° East 379 436 12,400 -2,025 Descending FlightAware ADS-B
Wed 07:04:54 AM 32.4580 -97.6200 83° East 351 404 11,500 -1,000 Descending FlightAware ADS-B
Wed 07:05:34 AM 32.4650 -97.5490 83° East 313 360 11,100 -618 Descending FlightAware ADS-B
Wed 07:06:02 AM 32.4750 -97.5030 76° East 296 341 10,800 -450 Descending FlightAware ADS-B
Wed 07:06:14 AM 32.4850 -97.4890 50° Northeast 294 338 10,800  Level FlightAware ADS-B
Wed 07:06:58 AM 32.5270 -97.4390 45° Northeast 292 336 10,800  Level FlightAware ADS-B
Wed 07:07:43 AM 32.5700 -97.3870 46° Northeast 293 337 10,800  Level FlightAware ADS-B
Wed 07:08:18 AM 32.6040 -97.3460 45° Northeast 294 338 10,800  Level FlightAware ADS-B
Wed 07:09:07 AM 32.6490 -97.2910 46° Northeast 294 338 10,800  Level FlightAware ADS-B
Wed 07:09:48 AM 32.6890 -97.2430 45° Northeast 293 337 10,800  Level FlightAware ADS-B
Wed 07:10:28 AM 32.7270 -97.1970 46° Northeast 292 336 10,800 -88 Level FlightAware ADS-B
Wed 07:10:56 AM 32.7560 -97.1710 37° Northeast 268 308 10,700 -718 Descending FlightAware ADS-B
Wed 07:12:25 AM 32.8490 -97.1680 North 255 293 9,400 -1,020 Descending FlightAware ADS-B
Wed 07:12:36 AM 32.8660 -97.1670 North 254 292 9,000 -1,902 Descending FlightAware ADS-B
Wed 07:13:06 AM 32.9120 -97.1660 North 251 289 8,100 -1,655 Descending FlightAware ADS-B
Wed 07:13:34 AM 32.9440 -97.1660 360° North 249 287 7,400 -1,500 Descending FlightAware ADS-B
Wed 07:14:02 AM 32.9760 -97.1650 North 248 285 6,700 -1,385 Descending FlightAware ADS-B
Wed 07:14:26 AM 33.0040 -97.1640 North 241 277 6,200 -1,500 Descending FlightAware ADS-B
Wed 07:14:50 AM 33.0300 -97.1640 360° North 241 277 5,500 -1,821 Descending FlightAware ADS-B
Wed 07:15:22 AM 33.0610 -97.1490 22° Northeast 227 261 4,500 -1,909 Descending FlightAware ADS-B
Wed 07:15:34 AM 33.0660 -97.1360 65° Northeast 220 253 4,100 -1,737 Descending FlightAware ADS-B
Wed 07:16:00 AM 33.0710 -97.1050 79° East 217 250 3,400 -1,440 Descending FlightAware ADS-B
Wed 07:16:24 AM 33.0740 -97.0760 83° East 220 253 2,900 -783 Descending FlightAware ADS-B
Wed 07:16:46 AM 33.0680 -97.0520 107° East 200 230 2,800 -176 Descending FlightAware ADS-B
Wed 07:16:58 AM 33.0620 -97.0420 126° Southeast 193 222 2,800  Level FlightAware ADS-B
Wed 07:17:12 AM 33.0510 -97.0340 149° Southeast 189 217 2,800 -214 Level FlightAware ADS-B
Wed 07:17:26 AM 33.0400 -97.0280 155° Southeast 190 219 2,700 -1,000 Descending FlightAware ADS-B
Wed 07:17:54 AM 33.0160 -97.0260 176° South 191 220 2,100 -1,050 Descending FlightAware ADS-B
Wed 07:18:06 AM 33.0050 -97.0260 180° South 184 212 2,000 -750 Descending FlightAware ADS-B
Wed 07:18:34 AM 32.9830 -97.0260 180° South 161 185 1,600 -778 Descending FlightAware ADS-B
Wed 07:19:00 AM 32.9660 -97.0260 180° South 133 153 1,300 -692 Descending FlightAware ADS-B
Wed 07:19:26 AM 32.9510 -97.0260 180° South 128 147 1,000 -692 Descending FlightAware ADS-B

Login

Don't have an account? Register now (free) for customized features, flight alerts, and more!